Time;durP1;ratioP1;P1;durP2;ratioP2;P2;SDS_P1;SDS_P2;PMS_P1;PMS_P2;Temp;Humidity;BMP_temperature;BMP_pressure;BME280_temperature;BME280_humidity;BME280_pressure;Samples;Min_cycle;Max_cycle;Signal;HPM_P1;HPM_P2
2021/06/30 00:01:28;;;;;;;1.75;0.70;;;;;;;15.18;88.07;96219.44;5111174;27;20332;-74
2021/06/30 00:04:08;;;;;;;0.63;0.50;;;;;;;15.14;87.95;96222.81;5111238;27;20117;-75
2021/06/30 00:06:46;;;;;;;1.42;0.50;;;;;;;15.10;88.05;96225.19;5091239;28;20382;-76
2021/06/30 00:09:23;;;;;;;0.57;0.40;;;;;;;15.09;88.16;96231.50;5105377;27;20413;-74
2021/06/30 00:12:02;;;;;;;1.77;0.73;;;;;;;15.08;88.25;96232.56;5121159;27;20198;-75
2021/06/30 00:14:37;;;;;;;3.03;0.75;;;;;;;15.08;88.28;96229.91;5038899;27;2007235;-74
2021/06/30 00:17:15;;;;;;;0.50;0.50;;;;;;;15.07;88.35;96230.94;5091107;27;20377;-75
2021/06/30 00:19:53;;;;;;;1.08;0.70;;;;;;;15.05;88.26;96232.25;5131848;27;20206;-75
2021/06/30 00:22:30;;;;;;;0.43;0.43;;;;;;;15.04;88.52;96222.75;5070618;28;20379;-74
2021/06/30 00:25:07;;;;;;;1.10;0.80;;;;;;;15.05;88.65;96224.34;5070640;28;20390;-75
2021/06/30 00:27:46;;;;;;;1.13;0.60;;;;;;;15.07;88.69;96224.88;5111436;27;20380;-78
2021/06/30 00:30:24;;;;;;;1.92;0.65;;;;;;;15.07;88.86;96228.31;5091009;28;20341;-76
2021/06/30 00:33:03;;;;;;;0.90;0.60;;;;;;;15.08;88.79;96224.63;5111217;27;20121;-75
2021/06/30 00:35:40;;;;;;;0.60;0.50;;;;;;;15.10;88.76;96229.63;5131551;27;20123;-75
2021/06/30 00:38:18;;;;;;;3.17;0.50;;;;;;;15.10;88.83;96229.63;5111383;27;20473;-76
2021/06/30 00:40:56;;;;;;;0.45;0.45;;;;;;;15.09;88.70;96231.50;5131914;27;20176;-76
2021/06/30 00:43:34;;;;;;;2.15;0.60;;;;;;;15.10;88.63;96238.38;5128439;27;20194;-75
2021/06/30 00:46:13;;;;;;;0.68;0.65;;;;;;;15.08;88.51;96232.56;5131605;27;20379;-74
2021/06/30 00:48:51;;;;;;;1.75;1.00;;;;;;;15.01;88.22;96242.50;5111352;27;20838;-74
2021/06/30 00:51:29;;;;;;;2.30;0.52;;;;;;;14.96;88.30;96243.28;5131554;27;20171;-74
2021/06/30 00:54:07;;;;;;;1.30;0.52;;;;;;;14.93;88.48;96240.31;5131139;27;20175;-76
2021/06/30 00:56:46;;;;;;;1.25;0.47;;;;;;;14.88;88.19;96248.22;5111237;27;20113;-73
2021/06/30 00:59:24;;;;;;;0.90;0.65;;;;;;;14.80;88.32;96255.53;5111106;27;20132;-75
2021/06/30 01:02:03;;;;;;;1.02;0.50;;;;;;;14.72;88.63;96263.09;5131576;27;20188;-73
2021/06/30 01:04:40;;;;;;;0.80;0.50;;;;;;;14.63;88.91;96265.38;5111216;27;20124;-73
2021/06/30 01:07:19;;;;;;;1.40;0.57;;;;;;;14.55;89.36;96271.91;5129593;27;20202;-73
2021/06/30 01:09:57;;;;;;;1.17;0.63;;;;;;;14.52;89.73;96276.84;5127878;27;20154;-74
2021/06/30 01:12:44;;;;;;;1.30;0.47;;;;;;;14.49;89.92;96272.03;5113461;28;20055;-73
2021/06/30 01:15:21;;;;;;;0.55;0.40;;;;;;;14.47;90.24;96269.69;5090823;28;20382;-73
2021/06/30 01:17:57;;;;;;;0.60;0.40;;;;;;;14.40;89.92;96272.50;5070396;28;20385;-73
2021/06/30 01:20:35;;;;;;;1.55;0.60;;;;;;;14.34;90.10;96272.66;5111266;27;20499;-73
2021/06/30 01:23:12;;;;;;;0.65;0.30;;;;;;;14.26;89.70;96275.72;5091011;27;20366;-75
2021/06/30 01:25:49;;;;;;;0.63;0.30;;;;;;;14.14;89.32;96267.97;5070985;28;20728;-72
2021/06/30 01:28:27;;;;;;;0.13;0.13;;;;;;;14.10;89.69;96256.28;5101769;27;20411;-71
2021/06/30 01:31:05;;;;;;;0.20;0.20;;;;;;;14.07;90.19;96246.22;5131608;27;20375;-72
2021/06/30 01:33:42;;;;;;;0.77;0.35;;;;;;;14.07;90.48;96267.31;5070506;28;20393;-73
2021/06/30 01:36:18;;;;;;;0.70;0.13;;;;;;;14.00;89.91;96270.94;5131886;27;20371;-72
2021/06/30 01:38:55;;;;;;;0.52;0.20;;;;;;;13.94;89.53;96281.66;5070379;28;20895;-72
2021/06/30 01:41:33;;;;;;;0.20;0.20;;;;;;;13.84;89.60;96277.06;5091067;28;20126;-72
2021/06/30 01:44:11;;;;;;;0.35;0.20;;;;;;;13.78;89.64;96270.91;5108954;27;20396;-73
2021/06/30 01:46:49;;;;;;;0.40;0.40;;;;;;;13.74;90.32;96258.47;5131671;27;20241;-73
2021/06/30 01:49:27;;;;;;;0.52;0.20;;;;;;;13.75;90.60;96254.78;5111141;27;20121;-73
2021/06/30 01:52:05;;;;;;;0.30;0.30;;;;;;;13.78;90.97;96249.81;5090723;28;20118;-73
2021/06/30 01:54:43;;;;;;;0.43;0.10;;;;;;;13.79;90.46;96243.50;5127404;27;20614;-73
2021/06/30 01:57:22;;;;;;;0.70;0.20;;;;;;;13.82;91.06;96239.59;5131612;27;20242;-73
2021/06/30 01:59:59;;;;;;;0.55;0.28;;;;;;;13.85;90.64;96227.75;5111319;27;20192;-73
2021/06/30 02:02:39;;;;;;;0.10;0.10;;;;;;;13.81;89.94;96236.16;5127275;27;20243;-73
2021/06/30 02:05:18;;;;;;;0.22;0.20;;;;;;;13.80;89.84;96225.88;5110981;27;20125;-73
2021/06/30 02:07:58;;;;;;;0.20;0.20;;;;;;;13.79;90.15;96217.13;5070903;28;20390;-74
2021/06/30 02:10:36;;;;;;;1.25;0.73;;;;;;;13.76;89.92;96222.91;5070266;28;20921;-74
2021/06/30 02:13:14;;;;;;;0.93;0.15;;;;;;;13.77;89.55;96229.78;5091014;28;20344;-73
2021/06/30 02:15:52;;;;;;;0.47;0.20;;;;;;;13.75;89.54;96244.22;5090374;28;20122;-74
2021/06/30 02:18:31;;;;;;;0.10;0.10;;;;;;;13.69;89.02;96248.66;5111111;27;20125;-74
2021/06/30 02:21:08;;;;;;;0.20;0.20;;;;;;;13.65;89.41;96244.91;5150007;27;20126;-74
2021/06/30 02:23:47;;;;;;;0.10;0.10;;;;;;;13.62;89.29;96240.09;5090805;28;20129;-74
2021/06/30 02:26:26;;;;;;;0.20;0.20;;;;;;;13.63;90.07;96235.63;5090898;28;20126;-74
2021/06/30 02:29:04;;;;;;;0.63;0.10;;;;;;;13.67;90.27;96232.28;5111703;27;20124;-74
2021/06/30 02:31:41;;;;;;;1.10;0.40;;;;;;;13.66;89.67;96228.03;5131273;27;20197;-75
2021/06/30 02:34:19;;;;;;;0.10;0.10;;;;;;;13.66;89.38;96221.97;5090986;28;20122;-74
2021/06/30 02:36:57;;;;;;;0.10;0.08;;;;;;;13.64;88.95;96224.06;5129505;27;20673;-74
2021/06/30 02:39:36;;;;;;;1.55;0.20;;;;;;;13.60;88.99;96221.91;5111538;27;20117;-74
2021/06/30 02:42:14;;;;;;;0.28;0.20;;;;;;;13.58;89.02;96231.09;5111069;27;20121;-74
2021/06/30 02:44:52;;;;;;;0.20;0.20;;;;;;;13.57;88.49;96242.69;5110858;27;20117;-74
2021/06/30 02:47:30;;;;;;;0.70;0.20;;;;;;;13.47;87.86;96253.06;5131430;27;20192;-74
2021/06/30 02:50:11;;;;;;;0.17;0.17;;;;;;;13.37;88.17;96256.31;5111505;27;20599;-74
2021/06/30 02:52:51;;;;;;;0.03;0.03;;;;;;;13.34;88.67;96256.81;5090662;28;20378;-74
2021/06/30 02:55:28;;;;;;;2.20;0.30;;;;;;;13.32;88.22;96267.59;5111061;27;20789;-74
2021/06/30 02:58:06;;;;;;;0.85;0.10;;;;;;;13.29;88.08;96265.44;5090825;28;20122;-74
2021/06/30 03:00:45;;;;;;;0.20;0.20;;;;;;;13.24;88.16;96262.69;5111443;27;20120;-74
2021/06/30 03:03:23;;;;;;;0.20;0.20;;;;;;;13.23;88.44;96266.38;5090696;28;20118;-73
2021/06/30 03:06:01;;;;;;;0.20;0.20;;;;;;;13.19;88.05;96266.03;5070943;28;20381;-74
2021/06/30 03:08:39;;;;;;;0.65;0.35;;;;;;;13.20;88.33;96261.56;5130567;27;20188;-74
2021/06/30 03:11:18;;;;;;;0.28;0.10;;;;;;;13.16;88.02;96263.88;5111343;27;20124;-74
2021/06/30 03:13:56;;;;;;;0.10;0.10;;;;;;;13.13;87.76;96260.94;5131453;27;20205;-74
2021/06/30 03:16:34;;;;;;;1.15;0.20;;;;;;;13.13;88.51;96253.81;5111099;27;20125;-73
2021/06/30 03:19:12;;;;;;;0.20;0.20;;;;;;;13.16;88.68;96257.81;5111059;27;20117;-74
2021/06/30 03:21:50;;;;;;;0.25;0.20;;;;;;;13.23;88.67;96262.91;5111160;27;20125;-74
2021/06/30 03:24:28;;;;;;;0.20;0.20;;;;;;;13.26;88.43;96251.91;5111163;27;20125;-74
2021/06/30 03:27:07;;;;;;;0.28;0.20;;;;;;;13.28;88.10;96261.16;5090683;28;20118;-75
2021/06/30 03:29:45;;;;;;;0.52;0.30;;;;;;;13.27;87.82;96261.41;5131584;27;20532;-74
2021/06/30 03:32:23;;;;;;;0.30;0.28;;;;;;;13.25;87.86;96252.94;5111307;27;20117;-74
2021/06/30 03:35:03;;;;;;;0.47;0.32;;;;;;;13.25;87.91;96251.13;5131629;27;19985;-73
2021/06/30 03:37:41;;;;;;;0.30;0.30;;;;;;;13.26;88.02;96254.56;5131579;27;20374;-74
2021/06/30 03:40:17;;;;;;;0.30;0.30;;;;;;;13.23;87.79;96250.56;5070580;28;20897;-74
2021/06/30 03:42:54;;;;;;;0.20;0.20;;;;;;;13.18;87.61;96251.25;5109448;27;20408;-75
2021/06/30 03:45:33;;;;;;;1.08;0.35;;;;;;;13.12;87.72;96246.97;5111575;27;20125;-74
2021/06/30 03:48:11;;;;;;;0.82;0.40;;;;;;;13.13;88.26;96243.28;5111018;27;20125;-74
2021/06/30 03:50:49;;;;;;;0.40;0.30;;;;;;;13.18;88.47;96250.47;5070533;28;20379;-74
2021/06/30 03:53:28;;;;;;;1.38;0.35;;;;;;;13.18;88.35;96251.25;5098201;27;20741;-74
2021/06/30 03:56:06;;;;;;;1.38;0.30;;;;;;;13.24;88.90;96254.78;5111015;27;20343;-75
2021/06/30 03:58:44;;;;;;;0.35;0.25;;;;;;;13.26;88.34;96254.56;5070735;28;20383;-74
2021/06/30 04:01:22;;;;;;;0.22;0.22;;;;;;;13.26;88.17;96257.19;5070707;28;20375;-74
2021/06/30 04:04:03;;;;;;;0.10;0.10;;;;;;;13.25;88.15;96264.28;5070608;28;20383;-74
2021/06/30 04:06:43;;;;;;;0.68;0.45;;;;;;;13.25;88.14;96258.22;5111070;27;20421;-74
2021/06/30 04:09:22;;;;;;;0.30;0.20;;;;;;;13.24;88.08;96264.53;5132005;27;20753;-74
2021/06/30 04:11:59;;;;;;;0.80;0.30;;;;;;;13.25;88.08;96255.56;5091039;28;20381;-75
2021/06/30 04:14:37;;;;;;;2.92;0.30;;;;;;;13.25;88.19;96258.22;5131907;27;20120;-75
2021/06/30 04:17:14;;;;;;;0.30;0.30;;;;;;;13.28;87.95;96263.81;5070398;28;20906;-74
2021/06/30 04:19:50;;;;;;;0.63;0.20;;;;;;;13.24;87.89;96257.41;5070533;28;20389;-74
2021/06/30 04:22:28;;;;;;;0.43;0.30;;;;;;;13.29;87.92;96262.00;5102227;27;20419;-74
2021/06/30 04:25:07;;;;;;;1.45;0.30;;;;;;;13.34;88.41;96256.81;5108664;27;20408;-74
2021/06/30 04:27:44;;;;;;;0.52;0.40;;;;;;;13.39;88.06;96259.53;5111732;27;20132;-74
2021/06/30 04:30:24;;;;;;;1.02;0.25;;;;;;;13.42;88.28;96255.59;5070622;28;20758;-75
2021/06/30 04:33:02;;;;;;;0.20;0.20;;;;;;;13.38;87.65;96257.94;5111110;27;20344;-74
2021/06/30 04:35:40;;;;;;;0.32;0.32;;;;;;;13.36;87.80;96260.00;5130976;27;20242;-74
2021/06/30 04:38:19;;;;;;;0.25;0.25;;;;;;;13.32;87.66;96256.25;5091148;28;20129;-74
2021/06/30 04:40:57;;;;;;;0.77;0.30;;;;;;;13.28;87.73;96250.63;5122271;27;20232;-74
2021/06/30 04:43:35;;;;;;;1.95;0.40;;;;;;;13.29;87.75;96247.00;5111086;27;20132;-75
2021/06/30 04:46:13;;;;;;;1.48;0.50;;;;;;;13.36;88.35;96250.28;5090986;27;20381;-75
2021/06/30 04:48:51;;;;;;;0.85;0.35;;;;;;;13.42;88.29;96251.16;5130500;27;20179;-74
2021/06/30 04:51:29;;;;;;;1.08;0.82;;;;;;;13.49;88.11;96249.13;5111369;27;20121;-74
2021/06/30 04:54:08;;;;;;;0.60;0.30;;;;;;;13.46;87.69;96247.00;5070752;28;20379;-74
2021/06/30 04:56:47;;;;;;;0.40;0.40;;;;;;;13.49;87.83;96246.50;5123890;27;20216;-74
2021/06/30 04:59:25;;;;;;;0.30;0.30;;;;;;;13.42;87.25;96245.88;5100400;27;20393;-73
2021/06/30 05:02:02;;;;;;;0.75;0.30;;;;;;;13.40;87.79;96245.31;5104399;27;20880;-74
2021/06/30 05:04:41;;;;;;;0.30;0.30;;;;;;;13.43;88.09;96255.38;5070379;28;20389;-75
2021/06/30 05:07:18;;;;;;;3.30;0.50;;;;;;;13.48;87.94;96252.00;5091170;28;20336;-74
2021/06/30 05:09:57;;;;;;;0.30;0.30;;;;;;;13.77;88.13;96250.88;5111395;27;20139;-75
2021/06/30 05:12:35;;;;;;;0.43;0.30;;;;;;;14.05;87.52;96248.31;5090769;28;20204;-75
2021/06/30 05:15:14;;;;;;;0.40;0.35;;;;;;;14.41;87.09;96246.91;5132206;27;20379;-75
2021/06/30 05:17:52;;;;;;;0.20;0.20;;;;;;;14.51;86.31;96247.03;5070654;28;20387;-75
2021/06/30 05:20:30;;;;;;;1.45;0.43;;;;;;;14.74;85.67;96245.97;5131499;27;20181;-73
2021/06/30 05:23:08;;;;;;;0.85;0.30;;;;;;;14.90;84.77;96241.63;5127176;27;20210;-75
2021/06/30 05:25:46;;;;;;;0.30;0.30;;;;;;;14.81;83.48;96246.56;5111098;27;20584;-75
2021/06/30 05:28:24;;;;;;;0.40;0.40;;;;;;;14.72;83.34;96240.16;5111470;27;20124;-74
2021/06/30 05:31:03;;;;;;;0.30;0.30;;;;;;;14.57;83.06;96246.06;5070875;28;20375;-73
2021/06/30 05:33:41;;;;;;;0.30;0.30;;;;;;;14.55;83.80;96247.31;5131388;27;20229;-74
2021/06/30 05:36:19;;;;;;;0.20;0.20;;;;;;;14.48;83.38;96234.31;5132048;27;20112;-74
2021/06/30 05:38:57;;;;;;;0.57;0.30;;;;;;;14.44;83.58;96241.13;5131806;27;20116;-73
2021/06/30 05:41:35;;;;;;;1.10;0.40;;;;;;;14.33;83.05;96253.41;5111393;27;20125;-74
2021/06/30 05:44:15;;;;;;;0.30;0.28;;;;;;;14.33;83.40;96252.63;5070773;28;20379;-74
2021/06/30 05:46:52;;;;;;;0.20;0.20;;;;;;;14.34;83.52;96252.38;5111627;27;20343;-73
2021/06/30 05:49:30;;;;;;;1.45;0.30;;;;;;;14.52;83.86;96247.81;5111472;27;20128;-74
2021/06/30 05:52:08;;;;;;;0.35;0.22;;;;;;;14.78;83.46;96247.06;5090718;28;20125;-74
2021/06/30 05:54:47;;;;;;;0.45;0.30;;;;;;;15.28;82.85;96239.03;5071034;28;20383;-73
2021/06/30 05:57:25;;;;;;;0.38;0.38;;;;;;;15.58;81.76;96246.38;5131522;27;20375;-74
2021/06/30 06:00:09;;;;;;;1.45;0.30;;;;;;;16.03;80.25;96237.16;5111418;27;20346;-74
2021/06/30 06:02:48;;;;;;;0.20;0.10;;;;;;;16.27;79.62;96232.22;5070364;28;20397;-74
2021/06/30 06:05:26;;;;;;;0.30;0.30;;;;;;;16.39;78.75;96227.50;5110959;27;20414;-73
2021/06/30 06:08:04;;;;;;;0.20;0.13;;;;;;;16.69;77.88;96228.63;5131792;27;20124;-74
2021/06/30 06:10:42;;;;;;;0.20;0.20;;;;;;;16.76;76.96;96233.72;5131817;27;20124;-74
2021/06/30 06:13:31;;;;;;;0.28;0.10;;;;;;;16.92;75.72;96234.53;5070738;28;20901;-74
2021/06/30 06:16:09;;;;;;;0.10;0.10;;;;;;;17.11;75.26;96227.66;5071102;28;20382;-74
2021/06/30 06:18:48;;;;;;;0.20;0.20;;;;;;;17.24;74.68;96234.31;5091078;28;20381;-74
2021/06/30 06:21:25;;;;;;;0.20;0.20;;;;;;;17.29;73.85;96236.16;5103437;27;20409;-75
2021/06/30 06:24:04;;;;;;;0.20;0.20;;;;;;;17.12;72.88;96234.56;5111519;27;20128;-74
2021/06/30 06:26:41;;;;;;;0.30;0.10;;;;;;;17.30;73.19;96235.09;5090672;28;20125;-74
2021/06/30 06:29:20;;;;;;;0.13;0.13;;;;;;;17.39;72.31;96236.94;5131726;27;20124;-74
2021/06/30 06:32:00;;;;;;;1.10;0.20;;;;;;;17.72;72.10;96233.97;5111157;27;20128;-73
2021/06/30 06:34:38;;;;;;;0.32;0.20;;;;;;;17.64;71.18;96236.13;5109666;27;20409;-74
2021/06/30 06:37:16;;;;;;;0.17;0.10;;;;;;;17.47;70.52;96237.44;5111307;27;20124;-74
2021/06/30 06:39:54;;;;;;;0.10;0.10;;;;;;;17.45;70.50;96229.78;5131981;27;20124;-74
2021/06/30 06:42:32;;;;;;;0.10;0.10;;;;;;;17.21;70.13;96240.13;5132181;27;20116;-74
2021/06/30 06:45:11;;;;;;;0.45;0.20;;;;;;;17.24;70.34;96234.31;5070576;28;20394;-74
2021/06/30 06:47:49;;;;;;;0.88;0.10;;;;;;;17.62;70.00;96238.25;5131719;27;20662;-74
2021/06/30 06:50:27;;;;;;;0.10;0.10;;;;;;;18.02;68.94;96233.16;5128291;27;20601;-74
2021/06/30 06:53:05;;;;;;;0.10;0.10;;;;;;;18.03;68.05;96238.16;5111158;27;20481;-76
2021/06/30 06:55:43;;;;;;;0.20;0.20;;;;;;;18.09;67.47;96230.19;5132134;27;20127;-74
2021/06/30 06:58:21;;;;;;;0.10;0.10;;;;;;;18.25;66.71;96234.41;5170227;27;20154;-74
2021/06/30 07:01:00;;;;;;;0.10;0.10;;;;;;;18.07;66.15;96242.94;5131582;27;20120;-75
2021/06/30 07:03:38;;;;;;;0.10;0.10;;;;;;;17.77;66.25;96245.38;5111360;27;20588;-75
2021/06/30 07:06:17;;;;;;;0.00;0.00;;;;;;;17.54;66.44;96244.09;5132130;27;20568;-73
2021/06/30 07:08:54;;;;;;;0.10;0.10;;;;;;;17.41;66.77;96247.28;5111243;27;20127;-73
2021/06/30 07:11:33;;;;;;;0.00;0.00;;;;;;;17.28;66.70;96253.09;5090635;28;20574;-74
2021/06/30 07:14:11;;;;;;;0.20;0.10;;;;;;;17.09;66.99;96245.66;5090815;28;20122;-74
2021/06/30 07:16:49;;;;;;;0.05;0.05;;;;;;;16.87;67.00;96253.88;5070859;28;20758;-74
2021/06/30 07:19:27;;;;;;;0.38;0.20;;;;;;;16.75;67.56;96251.44;5091041;28;20396;-75
2021/06/30 07:22:05;;;;;;;0.15;0.15;;;;;;;16.69;68.05;96259.63;5111289;27;20339;-73
2021/06/30 07:24:43;;;;;;;0.22;0.10;;;;;;;16.74;68.73;96263.09;5111144;27;20124;-73
2021/06/30 07:27:22;;;;;;;0.35;0.00;;;;;;;16.82;68.74;96256.53;5090943;28;20125;-73
2021/06/30 07:30:00;;;;;;;0.00;0.00;;;;;;;16.99;68.67;96258.94;5111189;27;20117;-74
2021/06/30 07:32:38;;;;;;;0.00;0.00;;;;;;;16.94;68.24;96258.91;5131754;27;20576;-75
2021/06/30 07:35:16;;;;;;;0.85;0.20;;;;;;;16.86;68.32;96267.38;5131638;27;20123;-73
2021/06/30 07:37:55;;;;;;;0.10;0.10;;;;;;;16.71;68.08;96265.44;5070736;28;20382;-73
2021/06/30 07:40:34;;;;;;;0.05;0.05;;;;;;;16.54;68.25;96265.66;5131712;27;20346;-73
2021/06/30 07:43:13;;;;;;;0.80;0.20;;;;;;;16.40;68.40;96268.03;5111013;27;20758;-74
2021/06/30 07:45:51;;;;;;;0.00;0.00;;;;;;;16.29;68.30;96272.44;5131636;27;20156;-73
2021/06/30 07:48:29;;;;;;;0.10;0.10;;;;;;;16.20;68.45;96266.06;5128079;27;20616;-73
2021/06/30 07:51:07;;;;;;;0.08;0.08;;;;;;;16.19;68.69;96275.06;5131571;27;20120;-73
2021/06/30 07:53:45;;;;;;;0.10;0.10;;;;;;;16.23;68.76;96273.47;5111561;27;20583;-73
2021/06/30 07:56:39;;;;;;;0.08;0.08;;;;;;;16.35;69.04;96276.72;5111083;27;20128;-73
2021/06/30 07:59:16;;;;;;;0.08;0.08;;;;;;;16.48;68.67;96272.00;5131841;27;20363;-74
2021/06/30 08:01:54;;;;;;;0.10;0.05;;;;;;;16.52;68.11;96265.94;5128356;27;20206;-73
2021/06/30 08:04:32;;;;;;;0.10;0.10;;;;;;;16.59;68.17;96263.06;5147571;27;20127;-75
2021/06/30 08:07:10;;;;;;;0.10;0.10;;;;;;;16.69;68.47;96267.56;5131942;27;20120;-73
2021/06/30 08:09:48;;;;;;;0.40;0.10;;;;;;;16.89;68.51;96264.22;5111129;27;20117;-72
2021/06/30 08:12:38;;;;;;;0.00;0.00;;;;;;;17.29;67.38;96252.84;5070466;28;20383;-73
2021/06/30 08:15:17;;;;;;;0.35;0.10;;;;;;;17.35;66.56;96251.78;5111510;27;20120;-73
2021/06/30 08:17:54;;;;;;;0.28;0.15;;;;;;;17.32;66.23;96260.25;5103857;27;20409;-73
2021/06/30 08:20:32;;;;;;;1.33;0.10;;;;;;;17.13;65.99;96253.91;5128432;27;20242;-73
2021/06/30 08:23:10;;;;;;;0.10;0.10;;;;;;;16.94;66.02;96258.91;5132138;27;20124;-74
2021/06/30 08:25:48;;;;;;;1.23;0.20;;;;;;;16.71;66.36;96258.28;5123471;27;20228;-74
2021/06/30 08:28:27;;;;;;;0.20;0.20;;;;;;;16.58;66.84;96262.25;5111104;27;20117;-74
2021/06/30 08:31:05;;;;;;;0.10;0.10;;;;;;;16.48;67.06;96262.19;5130987;27;20193;-74
2021/06/30 08:33:43;;;;;;;0.63;0.20;;;;;;;16.39;67.55;96261.13;5131575;27;20198;-74
2021/06/30 08:36:22;;;;;;;0.52;0.20;;;;;;;16.29;67.83;96264.50;5111193;27;20130;-73
2021/06/30 08:39:00;;;;;;;0.25;0.20;;;;;;;16.21;67.91;96259.72;5090775;28;20873;-73
2021/06/30 08:41:38;;;;;;;0.30;0.20;;;;;;;16.17;68.10;96262.09;5111715;27;20238;-74
2021/06/30 08:44:16;;;;;;;0.20;0.20;;;;;;;16.24;68.47;96260.00;5090891;28;20126;-73
2021/06/30 08:46:56;;;;;;;0.20;0.20;;;;;;;16.42;68.29;96269.34;5131879;27;20120;-74
2021/06/30 08:49:39;;;;;;;0.10;0.10;;;;;;;16.48;67.85;96264.06;5107088;27;20429;-73
2021/06/30 08:52:16;;;;;;;0.15;0.15;;;;;;;16.48;67.65;96274.66;5070903;28;20370;-73
2021/06/30 08:54:54;;;;;;;0.30;0.20;;;;;;;16.54;67.87;96271.75;5131526;27;20375;-74
2021/06/30 08:57:32;;;;;;;2.38;0.10;;;;;;;16.60;67.47;96259.34;5070737;28;20385;-74
2021/06/30 09:00:10;;;;;;;0.10;0.10;;;;;;;16.67;67.79;96273.13;5070902;28;20383;-74
2021/06/30 09:02:50;;;;;;;0.10;0.10;;;;;;;16.59;67.17;96281.59;5070650;28;20389;-74
2021/06/30 09:08:06;;;;;;;0.10;0.10;;;;;;;16.37;67.09;96271.16;5131829;27;20342;-75
2021/06/30 09:10:45;;;;;;;0.10;0.10;;;;;;;16.33;67.08;96286.75;5111466;27;20120;-74
2021/06/30 09:13:26;;;;;;;0.10;0.10;;;;;;;16.36;67.22;96275.69;5090828;28;20381;-74
2021/06/30 09:16:04;;;;;;;0.68;0.10;;;;;;;16.42;67.12;96279.13;5070538;28;20386;-75
2021/06/30 09:18:41;;;;;;;0.10;0.10;;;;;;;16.49;66.55;96278.91;5110697;27;20415;-74
2021/06/30 09:21:29;;;;;;;0.20;0.20;;;;;;;16.58;64.75;96272.81;5131839;27;20123;-74
2021/06/30 09:24:18;;;;;;;0.10;0.10;;;;;;;16.68;64.98;96269.44;5091189;27;20152;-73
2021/06/30 09:27:00;;;;;;;0.30;0.25;;;;;;;16.77;65.44;96275.78;5103886;27;20464;-75
2021/06/30 09:29:41;;;;;;;0.17;0.17;;;;;;;16.92;65.46;96282.22;5021598;28;20389;-73
2021/06/30 09:32:19;;;;;;;0.10;0.10;;;;;;;16.98;65.11;96279.31;5106305;27;20471;-73
2021/06/30 09:35:17;;;;;;;1.30;0.10;;;;;;;17.04;64.75;96278.25;5129548;27;20184;-73
2021/06/30 09:37:54;;;;;;;0.30;0.20;;;;;;;17.13;64.73;96275.88;5111160;27;20380;-74
2021/06/30 09:40:43;;;;;;;0.52;0.20;;;;;;;17.26;62.76;96264.00;5131879;27;20484;-74
2021/06/30 09:43:27;;;;;;;0.10;0.10;;;;;;;17.34;61.34;96246.75;5131776;27;20314;-74
2021/06/30 09:46:18;;;;;;;0.13;0.13;;;;;;;17.41;61.98;96249.94;5070702;28;20375;-74
2021/06/30 09:48:59;;;;;;;0.20;0.20;;;;;;;17.47;63.54;96259.47;5070809;28;20378;-74
2021/06/30 09:51:38;;;;;;;0.47;0.20;;;;;;;17.68;63.41;96257.59;5070708;28;20389;-73
2021/06/30 09:54:18;;;;;;;0.38;0.10;;;;;;;17.85;62.82;96244.06;5070556;28;20395;-74
2021/06/30 09:57:10;;;;;;;1.00;0.20;;;;;;;17.98;60.82;96238.19;5070949;28;20386;-74
2021/06/30 09:59:48;;;;;;;0.80;0.20;;;;;;;17.97;61.91;96238.44;5111133;27;20392;-74
2021/06/30 10:02:39;;;;;;;0.22;0.22;;;;;;;17.99;61.34;96237.13;5131614;27;20197;-74
2021/06/30 10:05:27;;;;;;;0.10;0.10;;;;;;;18.13;60.21;96231.25;5070531;28;20385;-74
2021/06/30 10:08:14;;;;;;;0.10;0.10;;;;;;;18.31;61.55;96243.09;5091121;28;20370;-74
2021/06/30 10:10:51;;;;;;;0.35;0.15;;;;;;;18.28;61.11;96235.69;5071144;28;20381;-74
2021/06/30 10:13:29;;;;;;;0.10;0.10;;;;;;;18.29;60.84;96231.97;5111107;27;20588;-74
2021/06/30 10:16:06;;;;;;;0.10;0.10;;;;;;;18.31;60.74;96235.97;5070609;28;20393;-74
2021/06/30 10:18:48;;;;;;;0.10;0.10;;;;;;;18.28;60.28;96233.03;5070554;28;20395;-74
2021/06/30 10:21:29;;;;;;;0.22;0.20;;;;;;;18.16;60.06;96236.78;5090657;28;20384;-74
2021/06/30 10:24:07;;;;;;;0.10;0.10;;;;;;;18.05;60.48;96236.03;5109241;27;20390;-74
2021/06/30 10:26:46;;;;;;;0.47;0.13;;;;;;;18.02;60.43;96238.47;5070835;28;20381;-74
2021/06/30 10:29:31;;;;;;;1.27;0.10;;;;;;;17.94;60.42;96245.09;5131591;27;20338;-74
2021/06/30 10:32:13;;;;;;;0.38;0.20;;;;;;;17.87;60.22;96243.78;5070655;28;20382;-74
2021/06/30 10:34:54;;;;;;;0.10;0.10;;;;;;;17.82;60.69;96233.97;5132068;27;20371;-73
2021/06/30 10:37:32;;;;;;;0.10;0.10;;;;;;;17.76;60.90;96242.97;5090909;28;20749;-73
2021/06/30 10:40:13;;;;;;;0.20;0.10;;;;;;;17.83;60.98;96235.59;5090918;27;20386;-74
2021/06/30 10:43:13;;;;;;;0.10;0.10;;;;;;;18.01;61.16;96237.63;5071025;28;20379;-74
2021/06/30 10:46:24;;;;;;;0.15;0.10;;;;;;;18.24;62.50;96256.69;5090981;28;20392;-74
2021/06/30 10:49:13;;;;;;;0.15;0.15;;;;;;;18.34;57.58;96206.19;5131983;27;20378;-75
2021/06/30 10:51:56;;;;;;;0.98;0.25;;;;;;;18.39;59.85;96229.28;5111112;27;20448;-74
2021/06/30 10:54:33;;;;;;;0.10;0.10;;;;;;;18.56;59.93;96234.22;5090813;28;20374;-74
2021/06/30 10:57:26;;;;;;;0.40;0.13;;;;;;;18.75;58.69;96221.94;5131260;27;20112;-74
2021/06/30 11:00:05;;;;;;;0.45;0.10;;;;;;;18.80;58.31;96215.81;5110806;27;20361;-74
2021/06/30 11:03:28;;;;;;;0.20;0.20;;;;;;;19.03;56.92;96199.16;5090272;27;20406;-75
2021/06/30 11:06:17;;;;;;;0.20;0.20;;;;;;;19.16;56.76;96189.75;5090625;27;20380;-74
2021/06/30 11:09:03;;;;;;;0.10;0.10;;;;;;;19.00;57.26;96196.25;5131203;27;20195;-74
2021/06/30 11:11:45;;;;;;;0.10;0.10;;;;;;;18.70;58.00;96208.66;5091075;27;20376;-73
2021/06/30 11:14:38;;;;;;;1.05;0.30;;;;;;;18.32;62.59;96256.13;5131479;27;20363;-72
2021/06/30 11:17:34;;;;;;;0.70;0.28;;;;;;;17.93;63.69;96248.00;5070379;28;20375;-73
2021/06/30 11:20:11;;;;;;;0.30;0.20;;;;;;;17.62;61.36;96217.03;5131569;27;20379;-72
2021/06/30 11:22:49;;;;;;;0.20;0.10;;;;;;;17.50;62.70;96226.34;5070358;28;20389;-72
2021/06/30 11:25:27;;;;;;;0.35;0.20;;;;;;;17.45;63.91;96224.50;5131158;27;20371;-73
2021/06/30 11:28:29;;;;;;;0.05;0.05;;;;;;;17.45;67.40;96249.13;5110771;27;20350;-73
2021/06/30 11:31:25;;;;;;;0.20;0.20;;;;;;;17.40;68.02;96251.78;5110108;27;20454;-73
2021/06/30 11:34:12;;;;;;;0.10;0.10;;;;;;;17.32;67.41;96244.34;5070313;28;20371;-73
2021/06/30 11:36:50;;;;;;;0.20;0.20;;;;;;;17.31;66.73;96229.53;5111325;27;20338;-73
2021/06/30 11:39:29;;;;;;;0.22;0.20;;;;;;;17.31;67.19;96232.16;5131235;27;20593;-73
2021/06/30 11:42:08;;;;;;;0.10;0.10;;;;;;;17.41;67.65;96220.78;5070215;28;20389;-73
2021/06/30 11:44:46;;;;;;;0.20;0.20;;;;;;;17.82;68.22;96223.34;5070281;28;20389;-73
2021/06/30 11:47:23;;;;;;;0.13;0.10;;;;;;;18.29;67.95;96224.00;5070092;28;20389;-73
2021/06/30 11:50:07;;;;;;;0.20;0.13;;;;;;;18.51;68.03;96213.81;5070190;28;20757;-73
2021/06/30 11:52:46;;;;;;;0.10;0.10;;;;;;;18.52;67.19;96219.91;5107186;27;20467;-74
2021/06/30 11:55:22;;;;;;;0.20;0.17;;;;;;;18.46;67.27;96213.84;5070665;28;20393;-73
2021/06/30 11:58:01;;;;;;;0.25;0.25;;;;;;;18.36;67.43;96214.69;5070218;28;20750;-74
2021/06/30 12:00:42;;;;;;;0.15;0.15;;;;;;;18.25;67.47;96219.25;5107246;27;20424;-74
2021/06/30 12:03:20;;;;;;;0.17;0.17;;;;;;;18.25;67.76;96216.59;5110268;27;20957;-75
2021/06/30 12:05:58;;;;;;;1.58;0.20;;;;;;;18.28;68.04;96217.13;5131245;27;20206;-74
2021/06/30 12:08:37;;;;;;;0.10;0.10;;;;;;;18.21;68.09;96214.78;5070572;28;20379;-73
2021/06/30 12:11:35;;;;;;;0.20;0.20;;;;;;;18.01;68.04;96216.41;5110829;27;20350;-73
2021/06/30 12:14:14;;;;;;;0.82;0.20;;;;;;;17.87;68.38;96223.38;5070113;28;20375;-74
2021/06/30 12:17:02;;;;;;;1.35;0.20;;;;;;;17.77;68.88;96218.84;5131439;27;20375;-74
2021/06/30 12:19:44;;;;;;;0.20;0.20;;;;;;;17.79;68.93;96218.59;5070479;28;20375;-75
2021/06/30 12:22:38;;;;;;;1.10;0.22;;;;;;;18.06;68.51;96210.31;5131435;27;20386;-74
2021/06/30 12:25:18;;;;;;;0.25;0.20;;;;;;;18.40;68.22;96210.41;5090803;27;20374;-74
2021/06/30 12:28:02;;;;;;;0.20;0.20;;;;;;;18.93;67.96;96203.75;5068371;27;1308740;-74
2021/06/30 12:30:42;;;;;;;0.17;0.17;;;;;;;19.31;66.79;96201.34;5105778;27;20423;-74
2021/06/30 12:33:21;;;;;;;0.22;0.22;;;;;;;19.30;65.50;96207.72;5110779;27;20474;-73
2021/06/30 12:35:58;;;;;;;0.10;0.10;;;;;;;19.40;65.43;96208.44;5127775;27;20179;-74